Holly Ann — WDE9094 — position and weather

sailwx.info

Track history (hours):
 
Tides and Currents Weather Stations Pressure Air Temp Water Temp Dewpoint Dewpoint Depression Visibility Wind Speed Wind Dir Waves Ship Positions

Holly Ann

Owner: Manke Tug and Barge Co., Inc., Shelton, WA. More information available from US FCC via Universal Licensing System and Coast Guard Vessel Documentation Center.

Last reported at 2015-Jul-07 13:30 UTC. Time now 2015-Jul-08 04:26 UTC.
Position N 47°12' W 122°38'.

; draft 4.5 m.

Type: Towing. MMSI: 367413350.

Date/timePositionNaut miles runAvg speedWind from/ knotsBaromVisibWave heightAir tempDewpointWater temp
2015-Jul-07 13:30N 47°12' W 122°38'8 8.7
2015-Jul-07 12:33N 47°20' W 122°33'8 7.8
2015-Jul-07 11:33N 47°27' W 122°31'8 7.6
2015-Jul-07 10:33N 47°34' W 122°26'4 4.0
2015-Jul-07 09:33N 47°33' W 122°21'0 0.0
2015-Jul-07 08:33N 47°33' W 122°21'0 0.0
2015-Jul-07 07:33N 47°33' W 122°21'0 0.0
2015-Jul-07 06:32N 47°33' W 122°21'0 0.0
2015-Jul-07 05:33N 47°33' W 122°21'0 0.0
2015-Jul-07 04:33N 47°33' W 122°21'0 0.0
2015-Jul-07 03:28N 47°33' W 122°21'0 0.0
2015-Jul-07 02:33N 47°33' W 122°21'0 0.0
2015-Jul-07 01:33N 47°33' W 122°21'0 0.0
2015-Jul-07 00:33N 47°33' W 122°21'0 0.0
2015-Jul-06 23:17N 47°33' W 122°21'1 1.3
2015-Jul-06 22:19N 47°34' W 122°21'3 4.1
2015-Jul-06 21:33N 47°34' W 122°26'8 7.8
2015-Jul-06 20:33N 47°27' W 122°31'9 8.7
2015-Jul-06 19:30N 47°18' W 122°33'8 8.2
2015-Jul-06 18:33N 47°12' W 122°39'18 4.1
2015-Jul-06 14:18N 47°13' W 123°05'  
2015-Jul-02 06:29N 47°12' W 122°37'6 6.9
2015-Jul-02 05:33N 47°18' W 122°33'8 7.7
2015-Jul-02 04:33N 47°26' W 122°31'8 7.7
2015-Jul-02 03:33N 47°33' W 122°28'8 8.2
2015-Jul-02 02:33N 47°41' W 122°28'8 8.2
2015-Jul-02 01:33N 47°49' W 122°25'9 8.7
2015-Jul-02 00:33N 47°57' W 122°20'7 6.1
2015-Jul-01 23:25N 48°01' W 122°11'3 3.0
2015-Jul-01 22:33N 47°59' W 122°13'0 0.0
2015-Jul-01 21:33N 47°59' W 122°13'0 0.2
2015-Jul-01 20:31N 47°59' W 122°13'0 0.2
2015-Jul-01 19:33N 47°59' W 122°13'1 0.9
2015-Jul-01 18:26N 47°59' W 122°15'0 0.0
2015-Jul-01 17:33N 47°59' W 122°15'0 0.0
2015-Jul-01 16:33N 47°59' W 122°15'0 0.0
2015-Jul-01 15:33N 47°59' W 122°15'0 0.0
2015-Jul-01 14:33N 47°59' W 122°15'0 0.0
2015-Jul-01 13:33N 47°59' W 122°15'1 1.2
2015-Jul-01 12:33N 48°00' W 122°14'1 1.5
2015-Jul-01 11:33N 48°01' W 122°12'5 5.4
2015-Jul-01 10:33N 47°57' W 122°18'7 6.6
2015-Jul-01 09:33N 47°52' W 122°23'7 7.0
2015-Jul-01 08:33N 47°45' W 122°25'7 7.0
2015-Jul-01 07:33N 47°38' W 122°27'7 7.2
2015-Jul-01 06:33N 47°31' W 122°29'8 7.6
2015-Jul-01 05:33N 47°24' W 122°32'8 8.3
2015-Jul-01 04:33N 47°16' W 122°34'  
Track history (hours):
 
Tides and Currents Weather Stations Pressure Air Temp Water Temp Dewpoint Dewpoint Depression Visibility Wind Speed Wind Dir Waves Ship Positions

Holly Ann

Owner: Manke Tug and Barge Co., Inc., Shelton, WA. More information available from US FCC via Universal Licensing System and Coast Guard Vessel Documentation Center.

Last reported at 2015-Jul-07 13:30 UTC. Time now 2015-Jul-08 04:26 UTC.
Position N 47°12' W 122°38'.

; draft 4.5 m.

Type: Towing. MMSI: 367413350.

Date/timePositionNaut miles runAvg speedWind from/ knotsBaromVisibWave heightAir tempDewpointWater temp
2015-Jul-07 13:30N 47°12' W 122°38'8 8.7
2015-Jul-07 12:33N 47°20' W 122°33'8 7.8
2015-Jul-07 11:33N 47°27' W 122°31'8 7.6
2015-Jul-07 10:33N 47°34' W 122°26'4 4.0
2015-Jul-07 09:33N 47°33' W 122°21'0 0.0
2015-Jul-07 08:33N 47°33' W 122°21'0 0.0
2015-Jul-07 07:33N 47°33' W 122°21'0 0.0
2015-Jul-07 06:32N 47°33' W 122°21'0 0.0
2015-Jul-07 05:33N 47°33' W 122°21'0 0.0
2015-Jul-07 04:33N 47°33' W 122°21'0 0.0
2015-Jul-07 03:28N 47°33' W 122°21'0 0.0
2015-Jul-07 02:33N 47°33' W 122°21'0 0.0
2015-Jul-07 01:33N 47°33' W 122°21'0 0.0
2015-Jul-07 00:33N 47°33' W 122°21'0 0.0
2015-Jul-06 23:17N 47°33' W 122°21'1 1.3
2015-Jul-06 22:19N 47°34' W 122°21'3 4.1
2015-Jul-06 21:33N 47°34' W 122°26'8 7.8
2015-Jul-06 20:33N 47°27' W 122°31'9 8.7
2015-Jul-06 19:30N 47°18' W 122°33'8 8.2
2015-Jul-06 18:33N 47°12' W 122°39'18 4.1
2015-Jul-06 14:18N 47°13' W 123°05'  
2015-Jul-02 06:29N 47°12' W 122°37'6 6.9
2015-Jul-02 05:33N 47°18' W 122°33'8 7.7
2015-Jul-02 04:33N 47°26' W 122°31'8 7.7
2015-Jul-02 03:33N 47°33' W 122°28'8 8.2
2015-Jul-02 02:33N 47°41' W 122°28'8 8.2
2015-Jul-02 01:33N 47°49' W 122°25'9 8.7
2015-Jul-02 00:33N 47°57' W 122°20'7 6.1
2015-Jul-01 23:25N 48°01' W 122°11'3 3.0
2015-Jul-01 22:33N 47°59' W 122°13'0 0.0
2015-Jul-01 21:33N 47°59' W 122°13'0 0.2
2015-Jul-01 20:31N 47°59' W 122°13'0 0.2
2015-Jul-01 19:33N 47°59' W 122°13'1 0.9
2015-Jul-01 18:26N 47°59' W 122°15'0 0.0
2015-Jul-01 17:33N 47°59' W 122°15'0 0.0
2015-Jul-01 16:33N 47°59' W 122°15'0 0.0
2015-Jul-01 15:33N 47°59' W 122°15'0 0.0
2015-Jul-01 14:33N 47°59' W 122°15'0 0.0
2015-Jul-01 13:33N 47°59' W 122°15'1 1.2
2015-Jul-01 12:33N 48°00' W 122°14'1 1.5
2015-Jul-01 11:33N 48°01' W 122°12'5 5.4
2015-Jul-01 10:33N 47°57' W 122°18'7 6.6
2015-Jul-01 09:33N 47°52' W 122°23'7 7.0
2015-Jul-01 08:33N 47°45' W 122°25'7 7.0
2015-Jul-01 07:33N 47°38' W 122°27'7 7.2
2015-Jul-01 06:33N 47°31' W 122°29'8 7.6
2015-Jul-01 05:33N 47°24' W 122°32'8 8.3
2015-Jul-01 04:33N 47°16' W 122°34'  

Dump ship's entire track history